createdAt,value
2019-05-09T00:00:45.131Z,9.75
2019-05-09T00:01:45.852Z,9.63
2019-05-09T00:02:45.360Z,9.67
2019-05-09T00:03:45.514Z,9.53
2019-05-09T00:04:45.690Z,9.62
2019-05-09T00:05:45.871Z,9.56
2019-05-09T00:06:46.047Z,9.42
2019-05-09T00:07:46.841Z,9.62
2019-05-09T00:08:46.333Z,9.48
2019-05-09T00:09:47.348Z,9.48
2019-05-09T00:10:47.345Z,9.50
2019-05-09T00:11:46.893Z,9.49
2019-05-09T00:12:47.856Z,9.49
2019-05-09T00:13:47.855Z,9.44
2019-05-09T00:14:47.399Z,9.56
2019-05-09T00:15:47.614Z,9.52
2019-05-09T00:16:47.801Z,9.41
2019-05-09T00:17:48.869Z,9.41
2019-05-09T00:18:48.152Z,9.45
2019-05-09T00:19:48.866Z,9.44
2019-05-09T00:20:48.868Z,9.53
2019-05-09T00:21:48.797Z,9.42
2019-05-09T00:22:49.003Z,9.35
2019-05-09T00:23:49.854Z,9.35
2019-05-09T00:24:49.396Z,9.35
2019-05-09T00:25:49.585Z,9.49
2019-05-09T00:26:49.779Z,9.38
2019-05-09T00:27:50.857Z,9.35
2019-05-09T00:28:50.117Z,9.30
2019-05-09T00:29:50.327Z,9.30
2019-05-09T00:30:50.496Z,9.22
2019-05-09T00:31:50.698Z,9.23
2019-05-09T00:32:53.441Z,9.17
2019-05-09T00:33:53.323Z,9.13
2019-05-09T00:34:53.248Z,9.22
2019-05-09T00:35:53.483Z,9.31
2019-05-09T00:36:53.988Z,9.24
2019-05-09T00:37:53.665Z,9.34
2019-05-09T00:38:53.733Z,9.35
2019-05-09T00:39:53.372Z,9.31
2019-05-09T00:40:58.667Z,9.42
2019-05-09T00:41:54.564Z,9.41
2019-05-09T00:42:54.356Z,9.49
2019-05-09T00:43:54.312Z,9.35
2019-05-09T00:44:54.044Z,9.40
2019-05-09T00:45:54.185Z,9.44
2019-05-09T00:46:54.422Z,9.34
2019-05-09T00:47:53.956Z,9.41
2019-05-09T00:48:54.676Z,9.48
2019-05-09T00:49:54.248Z,9.50
2019-05-09T00:50:55.896Z,9.45
2019-05-09T00:51:54.379Z,9.44
2019-05-09T00:52:54.881Z,9.55
2019-05-09T00:53:54.431Z,9.41
2019-05-09T00:54:54.602Z,9.45
2019-05-09T00:55:54.777Z,9.48
2019-05-09T00:56:54.958Z,9.44
2019-05-09T00:57:55.855Z,9.32
2019-05-09T00:58:55.276Z,9.44
2019-05-09T00:59:56.366Z,9.38
2019-05-09T01:00:55.669Z,9.45
2019-05-09T01:01:56.371Z,9.35
2019-05-09T01:02:56.851Z,9.40
2019-05-09T01:03:56.365Z,9.38
2019-05-09T01:04:56.437Z,9.49
2019-05-09T01:05:56.580Z,9.37
2019-05-09T01:06:56.755Z,9.41
2019-05-09T01:07:56.921Z,9.44
2019-05-09T01:08:57.387Z,9.48
2019-05-09T01:09:58.853Z,9.52
2019-05-09T01:11:08.394Z,9.45
2019-05-09T01:12:00.382Z,9.37
2019-05-09T01:12:57.722Z,9.45
2019-05-09T01:13:57.913Z,9.52
2019-05-09T01:14:58.113Z,9.37
2019-05-09T01:15:58.298Z,9.32
2019-05-09T01:16:58.470Z,9.26
2019-05-09T01:17:58.654Z,9.32
2019-05-09T01:18:58.814Z,9.40
2019-05-09T01:19:59.018Z,9.32
2019-05-09T01:20:59.196Z,9.31
2019-05-09T01:22:00.250Z,9.23
2019-05-09T01:23:00.400Z,9.17
2019-05-09T01:23:59.880Z,9.23
2019-05-09T01:24:59.814Z,9.06
2019-05-09T01:26:00.824Z,9.13
2019-05-09T01:27:00.784Z,9.15
2019-05-09T01:28:00.484Z,9.17
2019-05-09T01:29:01.382Z,9.08
2019-05-09T01:30:01.363Z,9.06
2019-05-09T01:31:03.767Z,9.08
2019-05-09T01:32:03.561Z,8.97
2019-05-09T01:33:03.583Z,8.94
2019-05-09T01:34:04.139Z,9.12
2019-05-09T01:35:03.786Z,9.04
2019-05-09T01:36:03.794Z,9.01
2019-05-09T01:37:03.569Z,8.89
2019-05-09T01:38:04.365Z,8.91
2019-05-09T01:39:03.383Z,8.91
2019-05-09T01:40:04.291Z,8.85
2019-05-09T01:41:04.215Z,8.80
2019-05-09T01:42:04.117Z,8.76
2019-05-09T01:43:04.517Z,8.79
2019-05-09T01:44:04.401Z,8.80
2019-05-09T01:45:03.796Z,8.73
2019-05-09T01:46:04.788Z,8.70
2019-05-09T01:47:04.053Z,8.80
2019-05-09T01:48:04.184Z,8.86
2019-05-09T01:49:04.347Z,8.82
2019-05-09T01:50:04.547Z,8.83
2019-05-09T01:51:04.720Z,8.79
2019-05-09T01:52:04.921Z,8.65
2019-05-09T01:53:05.123Z,8.61
2019-05-09T01:54:05.261Z,8.65
2019-05-09T01:55:05.415Z,8.64
2019-05-09T01:56:05.597Z,8.61
2019-05-09T01:57:05.793Z,8.57
2019-05-09T01:58:05.996Z,8.58
2019-05-09T01:59:06.172Z,8.55
2019-05-09T02:00:06.367Z,8.52
2019-05-09T02:01:06.613Z,8.40
2019-05-09T02:02:08.598Z,8.40
2019-05-09T02:03:07.999Z,8.37
2019-05-09T02:04:07.130Z,8.24
2019-05-09T02:05:07.353Z,8.18
2019-05-09T02:06:07.535Z,8.24
2019-05-09T02:07:07.764Z,8.21
2019-05-09T02:08:07.957Z,8.18
2019-05-09T02:09:08.143Z,8.22
2019-05-09T02:10:08.373Z,8.21
2019-05-09T02:11:08.588Z,8.12
2019-05-09T02:12:08.807Z,8.17
2019-05-09T02:13:08.988Z,8.07
2019-05-09T02:14:09.216Z,8.07
2019-05-09T02:15:09.303Z,8.06
2019-05-09T02:16:09.510Z,7.91
2019-05-09T02:17:09.685Z,7.86
2019-05-09T02:18:09.840Z,7.82
2019-05-09T02:19:10.087Z,7.85
2019-05-09T02:20:10.274Z,7.81
2019-05-09T02:21:12.330Z,7.84
2019-05-09T02:22:13.081Z,7.89
2019-05-09T02:23:10.874Z,7.88
2019-05-09T02:24:11.061Z,7.86
2019-05-09T02:25:13.043Z,7.81
2019-05-09T02:26:13.533Z,7.91
2019-05-09T02:27:13.223Z,7.91
2019-05-09T02:28:14.035Z,7.79
2019-05-09T02:29:13.853Z,7.94
2019-05-09T02:30:15.142Z,8.09
2019-05-09T02:31:16.114Z,8.24
2019-05-09T02:32:14.278Z,8.29
2019-05-09T02:33:14.580Z,8.34
2019-05-09T02:34:14.845Z,8.39
2019-05-09T02:35:14.012Z,8.31
2019-05-09T02:36:13.169Z,8.34
2019-05-09T02:37:13.357Z,8.34
2019-05-09T02:38:13.524Z,8.42
2019-05-09T02:39:13.694Z,8.45
2019-05-09T02:40:14.377Z,8.40
2019-05-09T02:41:14.927Z,8.40
2019-05-09T02:42:14.591Z,8.39
2019-05-09T02:43:14.362Z,8.49
2019-05-09T02:44:14.517Z,8.50
2019-05-09T02:45:14.698Z,8.47
2019-05-09T02:46:14.861Z,8.63
2019-05-09T02:47:18.000Z,8.60
2019-05-09T02:48:18.615Z,8.49
2019-05-09T02:49:15.503Z,8.55
2019-05-09T02:50:19.197Z,8.54
2019-05-09T02:51:18.395Z,8.47
2019-05-09T02:52:19.414Z,8.45
2019-05-09T02:53:18.914Z,8.46
2019-05-09T02:54:19.136Z,8.55
2019-05-09T02:55:18.375Z,8.47
2019-05-09T02:56:18.757Z,8.46
2019-05-09T02:57:18.576Z,8.47
2019-05-09T02:58:20.343Z,8.47
2019-05-09T02:59:18.912Z,8.47
2019-05-09T03:00:20.079Z,8.50
2019-05-09T03:01:19.043Z,8.49
2019-05-09T03:02:19.519Z,8.55
2019-05-09T03:03:19.864Z,8.47
2019-05-09T03:04:19.895Z,8.54
2019-05-09T03:05:19.526Z,8.54
2019-05-09T03:06:19.794Z,8.54
2019-05-09T03:07:19.381Z,8.61
2019-05-09T03:08:19.533Z,8.55
2019-05-09T03:09:19.450Z,8.55
2019-05-09T03:10:19.354Z,8.70
2019-05-09T03:11:20.890Z,8.65
2019-05-09T03:12:30.520Z,8.63
2019-05-09T03:13:20.551Z,8.54
2019-05-09T03:14:19.759Z,8.54
2019-05-09T03:15:19.897Z,8.52
2019-05-09T03:16:20.019Z,8.55
2019-05-09T03:17:20.171Z,8.42
2019-05-09T03:18:20.357Z,8.50
2019-05-09T03:19:21.380Z,8.57
2019-05-09T03:20:20.623Z,8.54
2019-05-09T03:21:20.766Z,8.57
2019-05-09T03:22:20.922Z,8.47
2019-05-09T03:23:21.150Z,8.50
2019-05-09T03:24:21.313Z,8.55
2019-05-09T03:25:21.464Z,8.54
2019-05-09T03:26:21.674Z,8.45
2019-05-09T03:27:21.831Z,8.58
2019-05-09T03:28:21.971Z,8.57
2019-05-09T03:29:22.406Z,8.58
2019-05-09T03:30:22.294Z,8.55
2019-05-09T03:31:22.449Z,8.45
2019-05-09T03:32:22.615Z,8.54
2019-05-09T03:33:23.381Z,8.58
2019-05-09T03:34:22.925Z,8.50
2019-05-09T03:35:23.890Z,8.58
2019-05-09T03:36:23.911Z,8.45
2019-05-09T03:37:23.900Z,8.60
2019-05-09T03:38:24.399Z,8.55
2019-05-09T03:39:24.383Z,8.60
2019-05-09T03:40:24.037Z,8.61
2019-05-09T03:41:24.198Z,8.63
2019-05-09T03:42:38.066Z,8.63
2019-05-09T03:43:27.480Z,8.63
2019-05-09T03:44:24.865Z,8.61
2019-05-09T03:45:27.269Z,8.60
2019-05-09T03:46:25.214Z,8.61
2019-05-09T03:47:27.509Z,8.54
2019-05-09T03:48:25.623Z,8.60
2019-05-09T03:49:25.770Z,8.55
2019-05-09T03:50:27.995Z,8.60
2019-05-09T03:51:27.453Z,8.55
2019-05-09T03:52:27.966Z,8.55
2019-05-09T03:53:27.669Z,8.58
2019-05-09T03:54:28.287Z,8.54
2019-05-09T03:55:28.232Z,8.55
2019-05-09T03:56:27.923Z,8.50
2019-05-09T03:57:28.313Z,8.52
2019-05-09T03:58:28.243Z,8.54
2019-05-09T03:59:29.388Z,8.47
2019-05-09T04:00:28.380Z,8.29
2019-05-09T04:01:28.902Z,8.29
2019-05-09T04:02:28.195Z,8.27
2019-05-09T04:03:29.891Z,8.24
2019-05-09T04:04:28.403Z,8.31
2019-05-09T04:05:28.569Z,8.20
2019-05-09T04:06:29.427Z,8.20
2019-05-09T04:07:29.977Z,8.17
2019-05-09T04:08:30.172Z,8.18
2019-05-09T04:09:29.906Z,8.14
2019-05-09T04:10:29.422Z,8.14
2019-05-09T04:11:29.898Z,8.20
2019-05-09T04:12:29.845Z,8.20
2019-05-09T04:13:29.996Z,8.12
2019-05-09T04:14:30.911Z,8.10
2019-05-09T04:15:30.878Z,8.14
2019-05-09T04:16:30.445Z,8.29
2019-05-09T04:17:31.402Z,8.25
2019-05-09T04:18:31.380Z,8.32
2019-05-09T04:19:31.888Z,8.31
2019-05-09T04:20:31.403Z,8.39
2019-05-09T04:21:31.164Z,8.46
2019-05-09T04:22:32.323Z,8.36
2019-05-09T04:23:31.484Z,8.32
2019-05-09T04:24:31.653Z,8.32
2019-05-09T04:25:32.405Z,8.31
2019-05-09T04:26:32.883Z,8.28
2019-05-09T04:27:32.396Z,8.32
2019-05-09T04:28:33.404Z,8.25
2019-05-09T04:29:32.683Z,8.29
2019-05-09T04:30:32.838Z,8.25
2019-05-09T04:31:33.893Z,8.20
2019-05-09T04:32:33.391Z,8.10
2019-05-09T04:33:52.778Z,8.18
2019-05-09T04:34:33.533Z,8.27
2019-05-09T04:35:34.386Z,8.55
2019-05-09T04:36:34.931Z,8.50
2019-05-09T04:37:34.056Z,8.49
2019-05-09T04:38:34.208Z,8.39
2019-05-09T04:39:34.374Z,8.37
2019-05-09T04:40:37.722Z,8.37
2019-05-09T04:41:38.529Z,8.39
2019-05-09T04:42:43.061Z,8.43
2019-05-09T04:43:37.475Z,8.46
2019-05-09T04:44:37.489Z,8.64
2019-05-09T04:45:38.780Z,8.93
2019-05-09T04:46:37.889Z,9.10
2019-05-09T04:47:39.370Z,9.30
2019-05-09T04:48:38.077Z,9.12
2019-05-09T04:49:40.943Z,8.96
2019-05-09T04:50:38.894Z,8.93
2019-05-09T04:51:39.263Z,8.63
2019-05-09T04:52:39.815Z,8.64
2019-05-09T04:53:39.980Z,9.19
2019-05-09T04:54:38.545Z,9.44
2019-05-09T04:55:38.377Z,9.56
2019-05-09T04:56:38.155Z,10.02
2019-05-09T04:57:38.901Z,10.29
2019-05-09T04:58:37.888Z,10.24
2019-05-09T04:59:38.044Z,10.36
2019-05-09T05:00:38.189Z,10.14
2019-05-09T05:01:39.065Z,10.10
2019-05-09T05:02:39.523Z,10.52
2019-05-09T05:03:38.633Z,10.58
2019-05-09T05:04:38.786Z,10.66
2019-05-09T05:05:40.113Z,10.55
2019-05-09T05:06:40.574Z,11.12
2019-05-09T05:07:40.272Z,11.12
2019-05-09T05:08:39.910Z,11.05
2019-05-09T05:09:39.657Z,11.05
2019-05-09T05:10:40.476Z,11.12
2019-05-09T05:11:39.991Z,11.12
2019-05-09T05:12:40.158Z,10.58
2019-05-09T05:13:40.945Z,10.60
2019-05-09T05:14:40.445Z,10.43
2019-05-09T05:15:41.413Z,10.38
2019-05-09T05:16:40.864Z,10.34
2019-05-09T05:17:41.020Z,10.04
2019-05-09T05:18:42.025Z,9.75
2019-05-09T05:19:41.384Z,9.74
2019-05-09T05:20:42.393Z,9.73
2019-05-09T05:21:41.904Z,9.60
2019-05-09T05:22:41.919Z,9.59
2019-05-09T05:23:42.051Z,9.65
2019-05-09T05:24:42.903Z,9.63
2019-05-09T05:25:42.407Z,9.65
2019-05-09T05:26:42.595Z,9.49
2019-05-09T05:27:42.788Z,9.55
2019-05-09T05:29:03.924Z,9.75
2019-05-09T05:29:43.182Z,9.67
2019-05-09T05:30:43.922Z,9.50
2019-05-09T05:31:43.540Z,9.44
2019-05-09T05:32:43.674Z,9.52
2019-05-09T05:33:43.809Z,9.44
2019-05-09T05:34:44.013Z,9.50
2019-05-09T05:35:44.894Z,9.41
2019-05-09T05:36:44.425Z,9.49
2019-05-09T05:37:44.566Z,9.56
2019-05-09T05:38:44.795Z,9.48
2019-05-09T05:39:44.939Z,9.41
2019-05-09T05:40:47.650Z,9.45
2019-05-09T05:41:48.274Z,9.86
2019-05-09T05:42:47.584Z,9.80
2019-05-09T05:43:47.912Z,10.09
2019-05-09T05:44:47.596Z,10.46
2019-05-09T05:45:47.969Z,10.49
2019-05-09T05:46:50.096Z,10.25
2019-05-09T05:47:48.560Z,10.39
2019-05-09T05:48:48.652Z,10.31
2019-05-09T05:49:48.749Z,10.11
2019-05-09T05:50:48.766Z,10.04
2019-05-09T05:51:48.191Z,10.01
2019-05-09T05:52:48.356Z,10.02
2019-05-09T05:53:48.081Z,10.01
2019-05-09T05:54:48.696Z,9.96
2019-05-09T05:55:52.054Z,10.01
2019-05-09T05:56:49.911Z,10.10
2019-05-09T05:57:48.148Z,10.22
2019-05-09T05:58:49.059Z,10.16
2019-05-09T05:59:49.504Z,10.24
2019-05-09T06:00:48.624Z,10.18
2019-05-09T06:01:48.786Z,10.18
2019-05-09T06:02:48.925Z,10.11
2019-05-09T06:03:49.394Z,10.25
2019-05-09T06:04:50.259Z,10.46
2019-05-09T06:05:51.788Z,10.29
2019-05-09T06:06:51.398Z,10.02
2019-05-09T06:07:49.881Z,10.17
2019-05-09T06:08:50.056Z,10.25
2019-05-09T06:09:50.196Z,10.22
2019-05-09T06:10:50.345Z,10.07
2019-05-09T06:11:50.549Z,10.20
2019-05-09T06:12:50.698Z,10.35
2019-05-09T06:13:57.282Z,10.42
2019-05-09T06:14:53.082Z,10.72
2019-05-09T06:15:51.311Z,10.90
2019-05-09T06:16:51.920Z,10.60
2019-05-09T06:17:52.435Z,10.57
2019-05-09T06:18:51.815Z,10.52
2019-05-09T06:19:52.976Z,10.60
2019-05-09T06:20:52.108Z,10.75
2019-05-09T06:21:52.563Z,10.55
2019-05-09T06:22:53.407Z,10.57
2019-05-09T06:23:53.397Z,10.86
2019-05-09T06:24:52.776Z,11.28
2019-05-09T06:25:52.976Z,11.35
2019-05-09T06:26:53.140Z,11.66
2019-05-09T06:27:53.287Z,11.88
2019-05-09T06:28:53.431Z,12.12
2019-05-09T06:29:53.577Z,12.23
2019-05-09T06:30:53.724Z,12.23
2019-05-09T06:31:53.940Z,12.12
2019-05-09T06:32:54.093Z,11.97
2019-05-09T06:33:54.248Z,11.64
2019-05-09T06:34:54.406Z,12.29
2019-05-09T06:35:55.400Z,13.16
2019-05-09T06:36:54.813Z,13.63
2019-05-09T06:37:54.931Z,13.80
2019-05-09T06:38:55.122Z,13.93
2019-05-09T06:40:09.924Z,14.38
2019-05-09T06:40:55.423Z,14.19
2019-05-09T06:41:57.525Z,12.66
2019-05-09T06:42:55.785Z,13.22
2019-05-09T06:44:11.014Z,13.59
2019-05-09T06:44:58.513Z,12.55
2019-05-09T06:45:57.596Z,11.94
2019-05-09T06:46:58.583Z,11.75
2019-05-09T06:47:58.336Z,11.66
2019-05-09T06:49:20.009Z,11.98
2019-05-09T06:49:59.012Z,12.26
2019-05-09T06:50:57.702Z,12.25
2019-05-09T06:51:58.411Z,12.04
2019-05-09T06:52:57.684Z,12.23
2019-05-09T06:53:58.493Z,12.76
2019-05-09T06:54:59.011Z,12.87
2019-05-09T06:55:58.154Z,12.54
2019-05-09T06:56:58.919Z,13.14
2019-05-09T06:57:58.598Z,13.81
2019-05-09T06:58:58.806Z,14.04
2019-05-09T06:59:58.996Z,12.76
2019-05-09T07:00:59.195Z,12.01
2019-05-09T07:01:59.364Z,11.72
2019-05-09T07:03:00.872Z,11.81
2019-05-09T07:04:00.743Z,11.87
2019-05-09T07:04:59.885Z,11.93
2019-05-09T07:06:00.077Z,12.12
2019-05-09T07:07:00.238Z,11.96
2019-05-09T07:08:22.297Z,11.49
2019-05-09T07:09:00.567Z,11.60
2019-05-09T07:10:01.422Z,12.15
2019-05-09T07:11:00.968Z,12.59
2019-05-09T07:12:01.153Z,12.52
2019-05-09T07:13:01.339Z,12.15
2019-05-09T07:14:01.944Z,11.57
2019-05-09T07:15:01.752Z,11.88
2019-05-09T07:16:01.977Z,12.22
2019-05-09T07:17:02.170Z,12.54
2019-05-09T07:18:02.354Z,12.40
2019-05-09T07:19:02.582Z,12.22
2019-05-09T07:20:02.745Z,12.62
2019-05-09T07:21:02.922Z,13.50
2019-05-09T07:22:03.108Z,13.98
2019-05-09T07:23:03.257Z,13.80
2019-05-09T07:24:03.935Z,14.46
2019-05-09T07:25:07.602Z,14.90
2019-05-09T07:26:07.584Z,15.58
2019-05-09T07:27:03.937Z,15.09
2019-05-09T07:28:04.131Z,13.93
2019-05-09T07:29:04.317Z,14.21
2019-05-09T07:30:04.513Z,14.42
2019-05-09T07:31:04.665Z,13.86
2019-05-09T07:32:04.836Z,13.35
2019-05-09T07:33:05.020Z,13.31
2019-05-09T07:34:05.202Z,13.39
2019-05-09T07:35:05.363Z,12.29
2019-05-09T07:36:08.383Z,12.19
2019-05-09T07:37:08.208Z,12.12
2019-05-09T07:38:08.299Z,12.26
2019-05-09T07:39:08.518Z,12.92
2019-05-09T07:40:08.342Z,14.02
2019-05-09T07:41:08.858Z,13.90
2019-05-09T07:42:07.779Z,13.69
2019-05-09T07:43:07.963Z,12.40
2019-05-09T07:44:07.908Z,12.13
2019-05-09T07:45:08.908Z,11.87
2019-05-09T07:46:09.081Z,11.81
2019-05-09T07:47:08.411Z,12.11
2019-05-09T07:48:07.776Z,12.37
2019-05-09T07:49:08.838Z,12.21
2019-05-09T07:50:08.729Z,12.13
2019-05-09T07:51:09.153Z,11.94
2019-05-09T07:52:10.273Z,11.64
2019-05-09T07:53:09.497Z,11.30
2019-05-09T07:54:20.615Z,11.27
2019-05-09T07:55:09.761Z,11.51
2019-05-09T07:56:08.930Z,11.93
2019-05-09T07:57:09.134Z,11.87
2019-05-09T07:58:09.294Z,12.30
2019-05-09T07:59:09.473Z,12.63
2019-05-09T08:00:09.658Z,12.80
2019-05-09T08:01:10.431Z,12.05
2019-05-09T08:02:10.164Z,11.69
2019-05-09T08:03:13.239Z,12.07
2019-05-09T08:04:11.308Z,12.99
2019-05-09T08:05:10.458Z,12.96
2019-05-09T08:06:11.434Z,12.85
2019-05-09T08:07:10.916Z,12.61
2019-05-09T08:08:11.092Z,12.73
2019-05-09T08:09:11.438Z,13.35
2019-05-09T08:10:11.547Z,13.65
2019-05-09T08:11:11.500Z,13.99
2019-05-09T08:12:11.677Z,13.65
2019-05-09T08:13:12.275Z,13.69
2019-05-09T08:14:11.969Z,13.87
2019-05-09T08:15:16.278Z,14.69
2019-05-09T08:16:14.833Z,15.28
2019-05-09T08:17:14.495Z,14.56
2019-05-09T08:18:12.934Z,14.35
2019-05-09T08:19:12.903Z,14.67
2019-05-09T08:20:13.920Z,14.95
2019-05-09T08:21:14.240Z,13.83
2019-05-09T08:22:13.377Z,14.11
2019-05-09T08:23:13.593Z,13.44
2019-05-09T08:24:13.760Z,13.91
2019-05-09T08:25:13.942Z,14.36
2019-05-09T08:26:14.935Z,14.34
2019-05-09T08:27:14.329Z,14.19
2019-05-09T08:28:14.530Z,14.38
2019-05-09T08:29:14.709Z,14.48
2019-05-09T08:30:14.916Z,14.02
2019-05-09T08:31:15.121Z,13.93
2019-05-09T08:32:15.334Z,13.93
2019-05-09T08:33:15.481Z,14.08
2019-05-09T08:34:15.700Z,14.59
2019-05-09T08:35:18.159Z,14.12
2019-05-09T08:36:18.050Z,14.20
2019-05-09T08:37:17.598Z,14.05
2019-05-09T08:38:17.945Z,13.73
2019-05-09T08:39:18.561Z,13.36
2019-05-09T08:40:21.256Z,13.69
2019-05-09T08:41:18.815Z,14.23
2019-05-09T08:42:20.091Z,14.39
2019-05-09T08:43:19.878Z,14.02
2019-05-09T08:44:18.670Z,13.76
2019-05-09T08:45:27.873Z,13.91
2019-05-09T08:46:19.938Z,14.71
2019-05-09T08:47:18.998Z,14.39
2019-05-09T08:48:18.936Z,14.41
2019-05-09T08:49:19.646Z,14.13
2019-05-09T08:50:24.758Z,14.53
2019-05-09T08:51:18.859Z,14.46
2019-05-09T08:52:19.872Z,14.41
2019-05-09T08:53:20.189Z,14.34
2019-05-09T08:54:19.444Z,14.44
2019-05-09T08:55:19.407Z,14.38
2019-05-09T08:56:19.954Z,14.91
2019-05-09T08:57:20.443Z,14.72
2019-05-09T08:58:20.260Z,14.97
2019-05-09T08:59:20.944Z,14.90
2019-05-09T09:00:20.383Z,14.59
2019-05-09T09:01:29.766Z,14.19
2019-05-09T09:02:22.766Z,14.35
2019-05-09T09:03:21.934Z,14.71
2019-05-09T09:04:21.104Z,14.42
2019-05-09T09:05:22.307Z,14.56
2019-05-09T09:06:21.604Z,14.66
2019-05-09T09:07:21.648Z,14.93
2019-05-09T09:08:22.448Z,14.59
2019-05-09T09:09:22.014Z,14.79
2019-05-09T09:10:22.189Z,15.00
2019-05-09T09:11:22.369Z,14.29
2019-05-09T09:12:30.582Z,14.06
2019-05-09T09:13:24.677Z,14.24
2019-05-09T09:14:22.812Z,14.34
2019-05-09T09:15:23.018Z,14.44
2019-05-09T09:16:23.174Z,14.34
2019-05-09T09:17:57.857Z,14.41
2019-05-09T09:18:23.587Z,14.87
2019-05-09T09:19:23.736Z,14.69
2019-05-09T09:20:23.909Z,14.49
2019-05-09T09:21:24.062Z,14.87
2019-05-09T09:22:24.224Z,15.51
2019-05-09T09:23:39.117Z,15.34
2019-05-09T09:24:25.580Z,15.41
2019-05-09T09:25:24.860Z,14.98
2019-05-09T09:26:27.743Z,14.79
2019-05-09T09:27:27.279Z,15.13
2019-05-09T09:28:27.597Z,14.83
2019-05-09T09:29:28.402Z,15.33
2019-05-09T09:30:28.927Z,15.80
2019-05-09T09:31:28.334Z,16.04
2019-05-09T09:32:28.044Z,15.49
2019-05-09T09:33:28.008Z,15.41
2019-05-09T09:34:30.032Z,15.38
2019-05-09T09:35:28.128Z,14.79
2019-05-09T09:36:28.115Z,14.83
2019-05-09T09:37:37.666Z,14.71
2019-05-09T09:38:29.347Z,14.67
2019-05-09T09:39:27.661Z,14.64
2019-05-09T09:40:28.660Z,14.42
2019-05-09T09:41:28.688Z,14.09
2019-05-09T09:42:29.474Z,13.71
2019-05-09T09:43:29.111Z,13.63
2019-05-09T09:44:28.840Z,13.57
2019-05-09T09:45:29.440Z,13.51
2019-05-09T09:46:28.781Z,13.80
2019-05-09T09:47:29.707Z,13.90
2019-05-09T09:48:29.479Z,14.19
2019-05-09T09:49:29.545Z,13.69
2019-05-09T09:50:30.150Z,14.17
2019-05-09T09:51:29.291Z,14.87
2019-05-09T09:52:34.003Z,15.62
2019-05-09T09:53:29.654Z,16.13
2019-05-09T09:54:29.831Z,16.70
2019-05-09T09:55:30.034Z,17.18
2019-05-09T09:56:30.249Z,17.46
2019-05-09T09:57:30.441Z,16.18
2019-05-09T09:58:30.650Z,15.85
2019-05-09T09:59:30.814Z,16.72
2019-05-09T10:00:31.490Z,17.15
2019-05-09T10:01:31.124Z,17.33
2019-05-09T10:02:31.292Z,17.62
2019-05-09T10:03:31.505Z,16.99
2019-05-09T10:04:31.736Z,16.11
2019-05-09T10:05:32.507Z,15.59
2019-05-09T10:06:32.158Z,15.67
2019-05-09T10:07:32.328Z,15.53
2019-05-09T10:08:32.508Z,15.19
2019-05-09T10:09:32.747Z,16.01
2019-05-09T10:10:32.829Z,16.50
2019-05-09T10:11:33.016Z,17.15
2019-05-09T10:12:34.179Z,17.99
2019-05-09T10:13:33.467Z,17.17
2019-05-09T10:14:34.490Z,17.07
2019-05-09T10:15:33.822Z,16.13
2019-05-09T10:16:34.001Z,15.62
2019-05-09T10:17:34.237Z,15.43
2019-05-09T10:18:34.432Z,15.41
2019-05-09T10:19:34.616Z,15.41
2019-05-09T10:20:34.837Z,15.22
2019-05-09T10:21:35.002Z,15.15
2019-05-09T10:22:44.587Z,15.00
2019-05-09T10:23:37.883Z,14.83
2019-05-09T10:24:35.643Z,14.13
2019-05-09T10:25:38.093Z,14.04
2019-05-09T10:26:39.039Z,13.87
2019-05-09T10:27:38.701Z,13.69
2019-05-09T10:28:38.122Z,13.68
2019-05-09T10:29:39.012Z,13.68
2019-05-09T10:30:38.446Z,13.29
2019-05-09T10:31:39.263Z,13.25
2019-05-09T10:32:38.487Z,13.21
2019-05-09T10:33:38.511Z,13.28
2019-05-09T10:34:37.876Z,13.48
2019-05-09T10:35:39.339Z,13.39
2019-05-09T10:36:40.000Z,12.95
2019-05-09T10:37:39.181Z,12.99
2019-05-09T10:38:39.387Z,13.13
2019-05-09T10:39:38.538Z,13.28
2019-05-09T10:40:40.061Z,13.14
2019-05-09T10:41:39.892Z,13.21
2019-05-09T10:42:39.022Z,13.16
2019-05-09T10:43:39.269Z,13.47
2019-05-09T10:44:39.462Z,13.94
2019-05-09T10:45:40.889Z,14.21
2019-05-09T10:46:52.421Z,14.71
2019-05-09T10:47:41.950Z,14.98
2019-05-09T10:48:40.183Z,14.48
2019-05-09T10:49:40.334Z,15.03
2019-05-09T10:50:44.918Z,15.05
2019-05-09T10:51:43.013Z,14.41
2019-05-09T10:52:40.866Z,14.98
2019-05-09T10:53:41.999Z,15.71
2019-05-09T10:54:41.245Z,15.62
2019-05-09T10:55:41.395Z,15.80
2019-05-09T10:56:43.503Z,16.48
2019-05-09T10:57:43.098Z,16.40
2019-05-09T10:58:42.835Z,15.56
2019-05-09T10:59:42.520Z,16.14
2019-05-09T11:00:42.147Z,16.78
2019-05-09T11:01:43.017Z,17.38
2019-05-09T11:02:42.569Z,18.28
2019-05-09T11:03:42.755Z,16.91
2019-05-09T11:04:46.430Z,16.22
2019-05-09T11:05:45.160Z,16.73
2019-05-09T11:06:43.278Z,16.07
2019-05-09T11:07:43.516Z,15.62
2019-05-09T11:08:43.703Z,16.41
2019-05-09T11:09:43.915Z,17.32
2019-05-09T11:10:47.366Z,16.95
2019-05-09T11:11:44.341Z,16.40
2019-05-09T11:12:44.516Z,16.45
2019-05-09T11:13:44.560Z,15.74
2019-05-09T11:14:44.754Z,15.70
2019-05-09T11:15:44.978Z,14.69
2019-05-09T11:16:49.107Z,14.66
2019-05-09T11:17:47.495Z,15.12
2019-05-09T11:18:48.275Z,15.40
2019-05-09T11:19:48.223Z,15.71
2019-05-09T11:20:47.521Z,15.52
2019-05-09T11:21:47.872Z,15.28
2019-05-09T11:22:47.125Z,14.91
2019-05-09T11:23:48.522Z,14.69
2019-05-09T11:24:50.566Z,14.48
2019-05-09T11:25:47.632Z,14.29
2019-05-09T11:26:48.097Z,14.17
2019-05-09T11:27:59.340Z,14.13
2019-05-09T11:28:49.272Z,14.09
2019-05-09T11:29:49.768Z,14.04
2019-05-09T11:30:48.648Z,13.87
2019-05-09T11:31:47.865Z,13.84
2019-05-09T11:32:48.926Z,13.93
2019-05-09T11:33:48.579Z,13.93
2019-05-09T11:34:49.249Z,13.90
2019-05-09T11:35:48.419Z,13.83
2019-05-09T11:36:49.903Z,13.63
2019-05-09T11:37:49.752Z,13.32
2019-05-09T11:38:49.628Z,13.41
2019-05-09T11:39:50.106Z,13.25
2019-05-09T11:40:49.270Z,13.22
2019-05-09T11:41:49.435Z,13.28
2019-05-09T11:42:49.618Z,13.25
2019-05-09T11:43:49.815Z,13.44
2019-05-09T11:44:49.980Z,13.47
2019-05-09T11:45:50.157Z,13.54
2019-05-09T11:46:50.334Z,13.61
2019-05-09T11:47:50.523Z,13.54
2019-05-09T11:48:50.685Z,13.83
2019-05-09T11:49:50.857Z,13.87
2019-05-09T11:50:51.037Z,13.75
2019-05-09T11:51:51.200Z,13.98
2019-05-09T11:52:51.536Z,13.99
2019-05-09T11:53:51.662Z,14.13
2019-05-09T11:54:51.728Z,14.24
2019-05-09T11:55:51.929Z,14.44
2019-05-09T11:56:53.016Z,14.44
2019-05-09T11:57:53.033Z,14.61
2019-05-09T11:58:52.408Z,14.42
2019-05-09T11:59:52.571Z,14.97
2019-05-09T12:00:52.751Z,15.12
2019-05-09T12:01:52.917Z,14.87
2019-05-09T12:02:53.048Z,14.67
2019-05-09T12:03:53.208Z,14.83
2019-05-09T12:04:53.371Z,14.95
2019-05-09T12:05:53.544Z,14.66
2019-05-09T12:06:53.681Z,14.69
2019-05-09T12:07:53.807Z,14.71
2019-05-09T12:08:53.949Z,14.66
2019-05-09T12:09:54.133Z,14.56
2019-05-09T12:10:54.318Z,14.38
2019-05-09T12:11:54.460Z,14.69
2019-05-09T12:12:54.599Z,15.20
2019-05-09T12:13:54.757Z,15.05
2019-05-09T12:14:55.038Z,14.80
2019-05-09T12:15:55.036Z,14.74
2019-05-09T12:16:55.208Z,15.05
2019-05-09T12:17:59.231Z,15.09
2019-05-09T12:18:58.419Z,15.00
2019-05-09T12:20:09.122Z,15.27
2019-05-09T12:20:57.884Z,15.15
2019-05-09T12:21:58.224Z,15.88
2019-05-09T12:22:58.519Z,15.09
2019-05-09T12:23:58.122Z,14.85
2019-05-09T12:24:59.186Z,15.31
2019-05-09T12:25:58.173Z,15.51
2019-05-09T12:27:02.335Z,15.43
2019-05-09T12:27:58.467Z,15.43
2019-05-09T12:28:58.330Z,15.34
2019-05-09T12:29:58.283Z,15.03
2019-05-09T12:30:58.680Z,14.97
2019-05-09T12:31:57.800Z,15.25
2019-05-09T12:32:58.906Z,15.44
2019-05-09T12:33:59.738Z,15.67
2019-05-09T12:34:59.307Z,16.88
2019-05-09T12:35:59.403Z,17.14
2019-05-09T12:36:59.605Z,16.70
2019-05-09T12:37:58.859Z,15.31
2019-05-09T12:38:59.515Z,15.58
2019-05-09T12:40:00.209Z,15.44
2019-05-09T12:41:00.610Z,15.58
2019-05-09T12:42:00.575Z,16.44
2019-05-09T12:42:59.840Z,16.66
2019-05-09T12:43:59.998Z,16.03
2019-05-09T12:45:00.145Z,15.28
2019-05-09T12:46:00.313Z,15.12
2019-05-09T12:47:00.439Z,14.90
2019-05-09T12:48:10.501Z,14.67
2019-05-09T12:49:02.708Z,14.44
2019-05-09T12:50:02.985Z,14.26
2019-05-09T12:51:03.035Z,14.13
2019-05-09T12:52:01.417Z,13.91
2019-05-09T12:53:01.613Z,13.90
2019-05-09T12:54:01.811Z,14.05
2019-05-09T12:55:02.011Z,14.09
2019-05-09T12:56:02.209Z,14.20
2019-05-09T12:57:02.422Z,14.35
2019-05-09T12:58:02.850Z,14.61
2019-05-09T12:59:02.755Z,14.59
2019-05-09T13:00:02.910Z,14.74
2019-05-09T13:01:04.081Z,14.93
2019-05-09T13:02:03.301Z,14.80
2019-05-09T13:03:03.388Z,14.52
2019-05-09T13:04:03.621Z,14.59
2019-05-09T13:05:03.719Z,14.80
2019-05-09T13:06:03.915Z,14.67